createdAt,value
2023-05-21T00:02:04.581Z,12.44
2023-05-21T00:07:08.852Z,13.86
2023-05-21T00:12:11.882Z,13.95
2023-05-21T00:17:14.755Z,12.97
2023-05-21T00:22:17.721Z,12.39
2023-05-21T00:27:20.707Z,12.13
2023-05-21T00:32:24.040Z,12.08
2023-05-21T00:37:26.916Z,11.98
2023-05-21T00:42:31.084Z,11.69
2023-05-21T00:47:35.544Z,11.42
2023-05-21T00:52:42.477Z,11.31
2023-05-21T00:57:46.465Z,11.25
2023-05-21T01:02:50.488Z,11.24
2023-05-21T01:07:53.517Z,11.32
2023-05-21T01:12:59.382Z,11.46
2023-05-21T01:18:02.363Z,11.66
2023-05-21T01:23:06.336Z,11.91
2023-05-21T01:28:09.492Z,12.23
2023-05-21T01:33:41.559Z,12.52
2023-05-21T01:38:50.764Z,12.92
2023-05-21T01:43:55.981Z,13.26
2023-05-21T01:48:58.956Z,13.53
2023-05-21T01:54:02.635Z,13.69
2023-05-21T01:59:05.822Z,13.87
2023-05-21T02:04:09.147Z,14.15
2023-05-21T02:09:12.365Z,14.59
2023-05-21T02:14:15.165Z,14.95
2023-05-21T02:19:18.664Z,15.26
2023-05-21T02:24:22.765Z,15.56
2023-05-21T02:29:25.596Z,15.91
2023-05-21T02:34:31.382Z,16.34
2023-05-21T02:39:34.332Z,16.96
2023-05-21T02:44:37.289Z,17.34
2023-05-21T02:49:40.221Z,17.45
2023-05-21T02:54:45.837Z,17.64
2023-05-21T02:59:48.996Z,17.75
2023-05-21T03:04:53.118Z,17.96
2023-05-21T03:09:56.087Z,18.03
2023-05-21T03:15:00.232Z,18.11
2023-05-21T03:20:17.529Z,18.22
2023-05-21T03:25:21.990Z,18.38
2023-05-21T03:30:25.113Z,18.50
2023-05-21T03:35:54.902Z,18.55
2023-05-21T03:40:59.019Z,18.64
2023-05-21T03:46:02.915Z,18.78
2023-05-21T03:51:18.498Z,18.80
2023-05-21T03:56:22.030Z,18.88
2023-05-21T04:01:25.087Z,18.97
2023-05-21T04:06:30.585Z,18.99
2023-05-21T04:11:34.137Z,18.96
2023-05-21T04:16:39.104Z,19.00
2023-05-21T04:21:42.447Z,19.10
2023-05-21T04:26:48.434Z,19.17
2023-05-21T04:31:51.930Z,19.38
2023-05-21T04:36:54.888Z,19.42
2023-05-21T04:41:58.190Z,19.40
2023-05-21T04:47:02.705Z,19.52
2023-05-21T04:52:05.854Z,19.73
2023-05-21T04:57:09.490Z,19.84
2023-05-21T05:02:12.481Z,20.02
2023-05-21T05:07:16.083Z,20.12
2023-05-21T05:12:19.044Z,20.25
2023-05-21T05:17:21.996Z,20.26
2023-05-21T05:22:25.641Z,20.37
2023-05-21T05:27:28.598Z,20.48
2023-05-21T05:32:32.074Z,20.60
2023-05-21T05:37:35.141Z,20.75
2023-05-21T05:42:38.346Z,20.90
2023-05-21T05:47:48.497Z,20.99
2023-05-21T05:52:51.907Z,21.25
2023-05-21T05:57:54.840Z,21.71
2023-05-21T06:02:58.304Z,22.21
2023-05-21T06:08:05.131Z,22.18
2023-05-21T06:13:08.112Z,22.25
2023-05-21T06:18:11.941Z,22.49
2023-05-21T06:23:15.011Z,22.36
2023-05-21T06:28:20.610Z,22.81
2023-05-21T06:33:28.016Z,23.07
2023-05-21T06:38:31.079Z,23.42
2023-05-21T06:43:35.946Z,23.88
2023-05-21T06:48:57.318Z,24.67
2023-05-21T06:54:00.541Z,23.94
2023-05-21T06:59:05.102Z,23.38
2023-05-21T07:04:09.195Z,23.20
2023-05-21T07:09:12.542Z,23.56
2023-05-21T07:14:15.542Z,23.87
2023-05-21T07:19:18.601Z,23.21
2023-05-21T07:24:21.609Z,22.17
2023-05-21T07:29:24.851Z,21.99
2023-05-21T07:34:28.299Z,21.71
2023-05-21T07:39:32.022Z,21.95
2023-05-21T07:44:38.240Z,22.37
2023-05-21T07:49:41.285Z,22.94
2023-05-21T07:54:44.303Z,23.32
2023-05-21T07:59:48.148Z,23.43
2023-05-21T08:04:53.004Z,22.98
2023-05-21T08:09:56.361Z,23.49
2023-05-21T08:14:59.711Z,23.89
2023-05-21T08:20:04.145Z,24.17
2023-05-21T08:25:09.200Z,23.82
2023-05-21T08:30:12.537Z,23.47
2023-05-21T08:35:15.944Z,23.28
2023-05-21T08:40:52.233Z,23.26
2023-05-21T08:45:57.643Z,23.09
2023-05-21T08:51:04.111Z,23.21
2023-05-21T08:56:13.623Z,23.26
2023-05-21T09:01:26.542Z,23.31
2023-05-21T09:06:42.403Z,23.36
2023-05-21T09:11:46.985Z,22.79
2023-05-21T09:16:50.132Z,22.70
2023-05-21T09:21:54.557Z,22.50
2023-05-21T09:27:01.250Z,22.52
2023-05-21T09:32:08.414Z,23.28
2023-05-21T09:37:27.233Z,23.23
2023-05-21T09:42:31.696Z,23.37
2023-05-21T09:47:34.786Z,23.35
2023-05-21T09:52:41.361Z,22.83
2023-05-21T09:57:48.623Z,22.85
2023-05-21T10:02:57.012Z,22.81
2023-05-21T10:08:04.605Z,22.76
2023-05-21T10:13:10.024Z,23.03
2023-05-21T10:18:14.111Z,23.20
2023-05-21T10:23:18.372Z,23.64
2023-05-21T10:28:21.500Z,24.36
2023-05-21T10:33:25.505Z,24.33
2023-05-21T10:38:28.717Z,23.51
2023-05-21T10:43:52.769Z,23.27
2023-05-21T10:49:04.343Z,23.02
2023-05-21T10:54:29.111Z,23.01
2023-05-21T10:59:46.609Z,22.83
2023-05-21T11:04:59.220Z,22.89
2023-05-21T11:10:36.129Z,22.88
2023-05-21T11:15:57.994Z,22.37
2023-05-21T11:21:10.784Z,22.10
2023-05-21T11:26:16.858Z,22.62
2023-05-21T11:31:27.284Z,22.84
2023-05-21T11:36:30.836Z,22.69
2023-05-21T11:41:53.729Z,22.51
2023-05-21T11:46:56.838Z,22.29
2023-05-21T11:52:04.014Z,22.01
2023-05-21T11:57:08.334Z,21.98
2023-05-21T12:02:16.465Z,22.18
2023-05-21T12:07:20.351Z,22.29
2023-05-21T12:12:30.748Z,22.19
2023-05-21T12:17:39.693Z,22.30
2023-05-21T12:22:43.698Z,22.47
2023-05-21T12:27:47.256Z,23.26
2023-05-21T12:32:50.238Z,23.02
2023-05-21T12:37:53.426Z,22.53
2023-05-21T12:42:56.988Z,22.36
2023-05-21T12:48:03.356Z,22.09
2023-05-21T12:53:10.116Z,22.26
2023-05-21T12:58:14.616Z,24.58
2023-05-21T13:03:17.542Z,26.43
2023-05-21T13:08:20.548Z,27.13
2023-05-21T13:13:25.242Z,26.94
2023-05-21T13:18:28.243Z,27.24
2023-05-21T13:23:31.490Z,27.08
2023-05-21T13:28:34.431Z,26.02
2023-05-21T13:33:40.000Z,25.62
2023-05-21T13:38:43.107Z,25.52
2023-05-21T13:43:46.118Z,23.99
2023-05-21T13:48:49.192Z,21.98
2023-05-21T13:53:52.323Z,21.04
2023-05-21T13:58:55.430Z,20.52
2023-05-21T14:03:58.734Z,19.98
2023-05-21T14:09:01.776Z,19.59
2023-05-21T14:14:05.178Z,19.28
2023-05-21T14:19:08.211Z,19.07
2023-05-21T14:24:11.339Z,18.88
2023-05-21T14:29:15.305Z,18.65
2023-05-21T14:34:18.242Z,18.50
2023-05-21T14:39:21.425Z,18.34
2023-05-21T14:44:24.364Z,18.17
2023-05-21T14:49:27.302Z,18.03
2023-05-21T14:54:30.211Z,17.76
2023-05-21T14:59:33.077Z,17.72
2023-05-21T15:04:36.021Z,17.58
2023-05-21T15:09:39.217Z,17.54
2023-05-21T15:14:42.138Z,17.42
2023-05-21T15:19:45.308Z,17.33
2023-05-21T15:24:48.398Z,17.15
2023-05-21T15:29:52.378Z,16.66
2023-05-21T15:34:55.522Z,16.19
2023-05-21T15:39:58.926Z,15.98
2023-05-21T15:45:01.848Z,15.65
2023-05-21T15:50:12.550Z,15.49
2023-05-21T15:55:15.755Z,15.31
2023-05-21T16:00:18.986Z,15.17
2023-05-21T16:05:22.058Z,15.12
2023-05-21T16:10:25.277Z,15.09
2023-05-21T16:15:28.971Z,15.00
2023-05-21T16:20:32.754Z,14.94
2023-05-21T16:25:36.703Z,14.82
2023-05-21T16:30:40.092Z,14.74
2023-05-21T16:35:43.163Z,14.70
2023-05-21T16:40:47.488Z,14.57
2023-05-21T16:45:52.769Z,14.37
2023-05-21T16:50:55.769Z,14.29
2023-05-21T16:55:58.637Z,14.18
2023-05-21T17:01:01.632Z,14.15
2023-05-21T17:06:05.878Z,14.02
2023-05-21T17:11:09.192Z,14.06
2023-05-21T17:16:12.513Z,13.85
2023-05-21T17:21:15.512Z,13.63
2023-05-21T17:26:18.466Z,13.52
2023-05-21T17:31:22.555Z,13.46
2023-05-21T17:36:25.684Z,13.37
2023-05-21T17:41:28.800Z,13.45
2023-05-21T17:46:31.754Z,13.50
2023-05-21T17:51:35.142Z,13.68
2023-05-21T17:56:40.876Z,13.71
2023-05-21T18:01:43.905Z,13.68
2023-05-21T18:06:46.967Z,13.65
2023-05-21T18:11:49.897Z,13.75
2023-05-21T18:16:53.006Z,13.75
2023-05-21T18:21:56.128Z,13.66
2023-05-21T18:26:59.613Z,13.48
2023-05-21T18:32:02.693Z,13.31
2023-05-21T18:37:07.190Z,13.00
2023-05-21T18:42:13.418Z,12.74
2023-05-21T18:47:17.301Z,12.70
2023-05-21T18:52:20.241Z,12.74
2023-05-21T18:57:23.203Z,12.83
2023-05-21T19:02:27.472Z,12.91
2023-05-21T19:07:30.430Z,12.84
2023-05-21T19:12:34.494Z,12.71
2023-05-21T19:17:39.324Z,12.59
2023-05-21T19:22:42.408Z,12.56
2023-05-21T19:27:45.485Z,12.53
2023-05-21T19:32:49.116Z,12.56
2023-05-21T19:37:52.176Z,12.58
2023-05-21T19:42:55.093Z,12.60
2023-05-21T19:47:59.603Z,12.58
2023-05-21T19:53:02.834Z,12.47
2023-05-21T19:58:05.917Z,12.31
2023-05-21T20:03:10.158Z,12.16
2023-05-21T20:08:13.711Z,12.01
2023-05-21T20:13:16.915Z,11.81
2023-05-21T20:18:22.566Z,11.61
2023-05-21T20:23:25.494Z,11.46
2023-05-21T20:28:28.421Z,11.29
2023-05-21T20:33:33.182Z,11.13
2023-05-21T20:38:38.577Z,11.05
2023-05-21T20:43:41.586Z,10.85
2023-05-21T20:48:44.528Z,10.72
2023-05-21T20:53:47.491Z,10.59
2023-05-21T20:58:51.169Z,10.48
2023-05-21T21:03:54.342Z,10.31
2023-05-21T21:08:57.495Z,10.07
2023-05-21T21:14:00.388Z,9.93
2023-05-21T21:19:03.379Z,10.00
2023-05-21T21:24:06.943Z,10.05
2023-05-21T21:29:09.749Z,10.12
2023-05-21T21:34:12.672Z,10.27
2023-05-21T21:39:17.326Z,10.40
2023-05-21T21:44:20.332Z,10.38
2023-05-21T21:49:25.405Z,10.38
2023-05-21T21:54:28.447Z,10.40
2023-05-21T21:59:31.416Z,10.37
2023-05-21T22:04:34.660Z,10.35
2023-05-21T22:09:37.803Z,10.38
2023-05-21T22:14:40.672Z,10.41
2023-05-21T22:19:44.180Z,10.48
2023-05-21T22:24:47.079Z,10.59
2023-05-21T22:29:50.074Z,10.67
2023-05-21T22:34:53.348Z,10.73
2023-05-21T22:39:56.657Z,10.79
2023-05-21T22:44:59.458Z,10.84
2023-05-21T22:50:04.738Z,10.86
2023-05-21T22:55:10.003Z,10.93
2023-05-21T23:00:13.258Z,10.98
2023-05-21T23:05:16.574Z,11.05
2023-05-21T23:10:19.696Z,11.10
2023-05-21T23:15:24.809Z,11.09
2023-05-21T23:20:28.269Z,11.04
2023-05-21T23:25:31.308Z,11.00
2023-05-21T23:30:34.185Z,11.08
2023-05-21T23:35:37.200Z,11.15
2023-05-21T23:40:40.544Z,11.31
2023-05-21T23:45:43.708Z,11.50
2023-05-21T23:50:46.760Z,11.76
2023-05-21T23:55:49.645Z,12.36
